Dillon Beach, CA (94929)

4:41 AM PDT on August 27, 2016 (GMT -0700)
Oyster Catcher Loop | | Change Station

Elev 173 ft 38.31 °N, 123.01 °W | Updated 9 minutes ago

Overcast
Overcast
60.1 °F
Feels Like 60.1 °F
N
1.9
Wind Variable Wind from SSE
Gusts 3.7 mph

Today
High -- | Low -- °F
--% Chance of Precip.
Yesterday
High -- | Low -- °F
Precip. -- in
Pressure 29.95 in
Visibility 10.0 miles
Clouds Overcast 1300 ft
Dew Point 56 °F
Humidity 86%
Rainfall 0.00 in
Snow Depth Not available.
6:37 AM 7:48 PM
Waning Crescent, 25% visible
METAR KSTS 271053Z AUTO 00000KT 10SM OVC013 16/13 A2997 RMK AO2 SLP141 T01560128
Pressure 29.95 in
Visibility 10.0 miles
Clouds Overcast 1300 ft
Dew Point 56 °F
Humidity 86%
Rainfall 0.00 in
Snow Depth Not available.
6:37 AM 7:48 PM
Waning Crescent, 25% visible
METAR KSTS 271053Z AUTO 00000KT 10SM OVC013 16/13 A2997 RMK AO2 SLP141 T01560128

10-Day Weather Forecast

Almanac

Astronomy

Aug. 27, 2016 Rise Set
Actual Time
Civil Twilight
Nautical Twilight
Astronomical Twilight
Moon
Length of Visible Light
Length of Day
Tomorrow will be .
, % of the Moon is Illuminated

Today's Extremes

State Highs State Lows

Community

WunderPhotos

Upload Photos

1,935,325 photos uploaded!

WunderBlog® & News

Nearby

Air Quality

  Air Quality AQ Index Pollutant
Not available.

Snow Depth

Station Depth Elevation

Earthquake Activity

City Distance Mag. Time & Date
Minimum magnitude displayed is 2.5.

Coastal Water Temperatures

Place Temperature

Stations

Nearby Weather Stations

Station Location Temp. Windchill Dew Point Humidity Wind Precip. Elev Updated Type
                   

Watches & Warnings

There are currently no watches in effect.